createdAt,value
2018-11-07T00:02:31.332Z,15.17
2018-11-07T00:05:02.249Z,16.87
2018-11-07T00:07:33.109Z,19.87
2018-11-07T00:10:03.972Z,19.30
2018-11-07T00:12:34.881Z,17.33
2018-11-07T00:15:05.813Z,17.17
2018-11-07T00:17:36.863Z,16.13
2018-11-07T00:20:09.878Z,16.23
2018-11-07T00:22:41.063Z,18.40
2018-11-07T00:25:12.604Z,20.47
2018-11-07T00:27:43.461Z,16.20
2018-11-07T00:30:14.416Z,19.47
2018-11-07T00:32:45.506Z,16.83
2018-11-07T00:35:16.781Z,20.87
2018-11-07T00:37:47.663Z,19.93
2018-11-07T00:40:18.934Z,20.50
2018-11-07T00:42:49.798Z,20.03
2018-11-07T00:45:20.728Z,20.30
2018-11-07T00:47:51.903Z,19.90
2018-11-07T00:50:23.145Z,19.67
2018-11-07T00:52:54.049Z,18.60
2018-11-07T00:55:24.925Z,20.00
2018-11-07T00:57:55.833Z,19.23
2018-11-07T01:00:26.674Z,18.37
2018-11-07T01:02:57.574Z,21.43
2018-11-07T01:05:28.881Z,19.50
2018-11-07T01:07:59.766Z,20.43
2018-11-07T01:10:30.731Z,27.57
2018-11-07T01:13:01.651Z,21.00
2018-11-07T01:15:32.974Z,24.23
2018-11-07T01:18:03.878Z,22.43
2018-11-07T01:20:34.745Z,25.43
2018-11-07T01:23:05.727Z,21.83
2018-11-07T01:25:36.682Z,19.77
2018-11-07T01:28:07.973Z,20.60
2018-11-07T01:30:38.805Z,19.40
2018-11-07T01:33:09.764Z,21.57
2018-11-07T01:35:40.624Z,19.03
2018-11-07T01:38:30.603Z,16.70
2018-11-07T01:41:01.474Z,17.07
2018-11-07T01:43:32.349Z,15.37
2018-11-07T01:46:03.239Z,15.63
2018-11-07T01:48:34.167Z,18.33
2018-11-07T01:51:05.119Z,19.87
2018-11-07T01:53:36.352Z,21.80
2018-11-07T01:56:07.540Z,19.93
2018-11-07T01:58:38.425Z,21.03
2018-11-07T02:01:09.346Z,20.40
2018-11-07T02:03:40.583Z,20.53
2018-11-07T02:06:12.208Z,22.73
2018-11-07T02:08:43.105Z,27.00
2018-11-07T02:11:14.348Z,22.87
2018-11-07T02:13:45.241Z,21.57
2018-11-07T02:16:16.141Z,20.73
2018-11-07T02:18:47.766Z,19.87
2018-11-07T02:21:19.018Z,19.90
2018-11-07T02:23:49.960Z,23.43
2018-11-07T02:26:21.167Z,22.07
2018-11-07T02:28:52.084Z,20.37
2018-11-07T02:31:24.281Z,20.23
2018-11-07T02:33:55.214Z,20.57
2018-11-07T02:36:26.234Z,22.00
2018-11-07T02:38:57.424Z,19.37
2018-11-07T02:41:28.373Z,20.33
2018-11-07T02:43:59.296Z,21.53
2018-11-07T02:46:30.174Z,21.83
2018-11-07T02:49:01.886Z,22.37
2018-11-07T02:51:33.096Z,22.37
2018-11-07T02:54:05.083Z,19.57
2018-11-07T02:56:36.329Z,24.53
2018-11-07T02:59:07.838Z,22.40
2018-11-07T03:01:38.721Z,22.30
2018-11-07T03:04:09.605Z,25.27
2018-11-07T03:06:40.509Z,23.90
2018-11-07T03:09:11.702Z,22.53
2018-11-07T03:11:42.926Z,20.90
2018-11-07T03:14:14.135Z,22.33
2018-11-07T03:16:45.472Z,19.63
2018-11-07T03:19:16.373Z,22.33
2018-11-07T03:21:47.261Z,17.60
2018-11-07T03:24:18.182Z,21.67
2018-11-07T03:26:49.099Z,27.43
2018-11-07T03:29:20.000Z,23.77
2018-11-07T03:31:50.915Z,22.17
2018-11-07T03:34:21.860Z,21.53
2018-11-07T03:36:52.964Z,20.83
2018-11-07T03:39:23.846Z,21.13
2018-11-07T03:41:55.078Z,21.13
2018-11-07T03:44:26.325Z,21.80
2018-11-07T03:46:57.234Z,19.77
2018-11-07T03:49:28.165Z,20.33
2018-11-07T03:51:59.340Z,18.77
2018-11-07T03:54:30.280Z,19.07
2018-11-07T03:57:01.218Z,23.20
2018-11-07T03:59:32.150Z,17.60
2018-11-07T04:02:03.423Z,20.23
2018-11-07T04:04:35.451Z,26.23
2018-11-07T04:07:06.982Z,23.83
2018-11-07T04:09:37.876Z,19.97
2018-11-07T04:12:08.816Z,22.73
2018-11-07T04:14:39.734Z,21.00
2018-11-07T04:17:10.678Z,23.43
2018-11-07T04:19:41.564Z,22.13
2018-11-07T04:22:12.442Z,19.93
2018-11-07T04:24:43.693Z,22.40
2018-11-07T04:27:14.556Z,19.60
2018-11-07T04:29:45.716Z,19.23
2018-11-07T04:32:16.592Z,31.97
2018-11-07T04:34:47.518Z,35.13
2018-11-07T04:37:18.445Z,24.17
2018-11-07T04:39:49.355Z,20.10
2018-11-07T04:42:20.274Z,40.90
2018-11-07T04:44:51.194Z,28.60
2018-11-07T04:47:22.086Z,35.63
2018-11-07T04:49:53.636Z,27.73
2018-11-07T04:52:24.521Z,25.50
2018-11-07T04:54:55.456Z,25.73
2018-11-07T04:57:26.689Z,23.97
2018-11-07T04:59:57.905Z,23.80
2018-11-07T05:02:29.284Z,32.00
2018-11-07T05:05:00.193Z,24.77
2018-11-07T05:07:31.471Z,22.60
2018-11-07T05:10:02.794Z,18.53
2018-11-07T05:12:33.958Z,20.40
2018-11-07T05:15:04.854Z,22.90
2018-11-07T05:17:35.730Z,22.50
2018-11-07T05:20:08.492Z,26.23
2018-11-07T05:22:39.463Z,34.00
2018-11-07T05:25:11.362Z,30.30
2018-11-07T05:27:43.110Z,29.57
2018-11-07T05:30:14.017Z,31.10
2018-11-07T05:32:45.229Z,29.87
2018-11-07T05:35:16.189Z,26.43
2018-11-07T05:37:47.162Z,24.97
2018-11-07T05:40:18.067Z,22.67
2018-11-07T05:42:48.954Z,23.53
2018-11-07T05:45:19.911Z,21.30
2018-11-07T05:47:51.479Z,20.07
2018-11-07T05:50:22.404Z,19.83
2018-11-07T05:52:53.330Z,19.33
2018-11-07T05:55:24.241Z,24.03
2018-11-07T05:57:55.956Z,22.40
2018-11-07T06:00:26.887Z,19.53
2018-11-07T06:02:57.795Z,19.63
2018-11-07T06:05:28.735Z,22.13
2018-11-07T06:07:59.624Z,23.83
2018-11-07T06:10:30.539Z,21.47
2018-11-07T06:13:02.406Z,22.37
2018-11-07T06:15:33.359Z,20.13
2018-11-07T06:18:04.713Z,24.17
2018-11-07T06:20:35.648Z,20.37
2018-11-07T06:23:06.594Z,21.93
2018-11-07T06:25:37.558Z,19.33
2018-11-07T06:28:11.959Z,24.93
2018-11-07T06:30:42.852Z,22.40
2018-11-07T06:33:13.793Z,18.93
2018-11-07T06:35:44.678Z,23.07
2018-11-07T06:38:15.913Z,29.83
2018-11-07T06:40:47.158Z,21.87
2018-11-07T06:43:18.392Z,28.07
2018-11-07T06:45:50.022Z,31.67
2018-11-07T06:48:20.983Z,29.87
2018-11-07T06:50:51.878Z,33.43
2018-11-07T06:53:22.762Z,32.87
2018-11-07T06:55:53.652Z,32.40
2018-11-07T06:58:24.562Z,38.90
2018-11-07T07:00:55.461Z,39.17
2018-11-07T07:03:26.624Z,41.80
2018-11-07T07:05:57.885Z,37.57
2018-11-07T07:08:29.410Z,39.93
2018-11-07T07:11:00.348Z,43.33
2018-11-07T07:13:31.617Z,44.87
2018-11-07T07:16:02.484Z,42.53
2018-11-07T07:18:33.423Z,39.10
2018-11-07T07:21:04.307Z,42.47
2018-11-07T07:23:35.734Z,34.50
2018-11-07T07:26:06.617Z,37.10
2018-11-07T07:28:38.029Z,31.80
2018-11-07T07:31:08.920Z,32.00
2018-11-07T07:33:40.218Z,33.63
2018-11-07T07:36:11.053Z,30.70
2018-11-07T07:39:01.298Z,31.83
2018-11-07T07:41:32.224Z,25.70
2018-11-07T07:44:03.503Z,24.83
2018-11-07T07:46:34.785Z,24.17
2018-11-07T07:49:06.245Z,27.50
2018-11-07T07:51:37.279Z,25.70
2018-11-07T07:54:08.224Z,32.80
2018-11-07T07:56:39.825Z,23.97
2018-11-07T07:59:10.866Z,27.07
2018-11-07T08:01:42.493Z,28.17
2018-11-07T08:04:13.474Z,32.93
2018-11-07T08:06:44.666Z,33.33
2018-11-07T08:09:15.994Z,32.40
2018-11-07T08:11:46.968Z,27.20
2018-11-07T08:14:17.930Z,26.30
2018-11-07T08:16:49.584Z,26.83
2018-11-07T08:19:20.606Z,27.60
2018-11-07T08:21:51.883Z,25.77
2018-11-07T08:24:23.147Z,24.93
2018-11-07T08:26:54.387Z,28.23
2018-11-07T08:29:25.452Z,29.57
2018-11-07T08:31:56.421Z,29.13
2018-11-07T08:34:27.345Z,22.30
2018-11-07T08:36:58.956Z,21.83
2018-11-07T08:39:29.942Z,22.57
2018-11-07T08:42:00.874Z,23.50
2018-11-07T08:44:31.919Z,21.80
2018-11-07T08:47:02.964Z,18.73
2018-11-07T08:49:33.960Z,16.87
2018-11-07T08:52:04.950Z,14.93
2018-11-07T08:54:36.006Z,14.97
2018-11-07T08:57:07.196Z,15.77
2018-11-07T08:59:38.454Z,15.87
2018-11-07T09:02:09.451Z,17.03
2018-11-07T09:04:40.404Z,15.30
2018-11-07T09:07:11.681Z,14.97
2018-11-07T09:09:42.693Z,19.43
2018-11-07T09:12:13.671Z,17.63
2018-11-07T09:14:44.670Z,26.03
2018-11-07T09:17:15.707Z,16.23
2018-11-07T09:19:46.648Z,18.27
2018-11-07T09:22:17.682Z,19.03
2018-11-07T09:24:48.707Z,20.37
2018-11-07T09:27:19.719Z,21.43
2018-11-07T09:29:51.204Z,19.10
2018-11-07T09:32:22.084Z,22.20
2018-11-07T09:34:53.131Z,20.73
2018-11-07T09:37:24.116Z,22.37
2018-11-07T09:39:55.098Z,23.17
2018-11-07T09:42:27.224Z,24.43
2018-11-07T09:44:58.829Z,21.23
2018-11-07T09:47:29.870Z,22.50
2018-11-07T09:50:00.843Z,16.00
2018-11-07T09:52:31.820Z,18.47
2018-11-07T09:55:02.967Z,15.40
2018-11-07T09:57:34.420Z,14.23
2018-11-07T10:00:05.967Z,16.30
2018-11-07T10:02:37.151Z,17.53
2018-11-07T10:05:09.430Z,16.33
2018-11-07T10:07:41.055Z,16.47
2018-11-07T10:10:14.861Z,13.57
2018-11-07T10:12:46.318Z,16.73
2018-11-07T10:15:17.562Z,17.47
2018-11-07T10:17:48.980Z,14.13
2018-11-07T10:20:21.440Z,14.63
2018-11-07T10:22:52.363Z,12.80
2018-11-07T10:25:23.356Z,15.10
2018-11-07T10:27:55.305Z,16.47
2018-11-07T10:30:26.091Z,17.13
2018-11-07T10:32:57.021Z,19.50
2018-11-07T10:35:28.365Z,19.00
2018-11-07T10:37:59.654Z,19.97
2018-11-07T10:40:30.675Z,23.87
2018-11-07T10:43:02.000Z,22.33
2018-11-07T10:45:33.611Z,25.20
2018-11-07T10:48:04.511Z,27.57
2018-11-07T10:50:35.478Z,26.53
2018-11-07T10:53:06.532Z,25.63
2018-11-07T10:55:37.618Z,26.67
2018-11-07T10:58:08.559Z,28.47
2018-11-07T11:00:57.550Z,31.33
2018-11-07T11:03:28.923Z,27.37
2018-11-07T11:06:00.232Z,24.97
2018-11-07T11:08:31.499Z,23.67
2018-11-07T11:11:02.478Z,26.03
2018-11-07T11:13:33.385Z,28.70
2018-11-07T11:16:04.753Z,29.97
2018-11-07T11:18:35.733Z,29.37
2018-11-07T11:21:07.494Z,29.20
2018-11-07T11:23:38.638Z,30.30
2018-11-07T11:26:09.677Z,30.40
2018-11-07T11:28:40.646Z,28.07
2018-11-07T11:31:11.625Z,29.77
2018-11-07T11:33:42.616Z,32.10
2018-11-07T11:36:13.579Z,33.07
2018-11-07T11:38:47.164Z,33.77
2018-11-07T11:41:18.211Z,38.83
2018-11-07T11:43:49.099Z,37.47
2018-11-07T11:46:20.677Z,39.83
2018-11-07T11:48:52.069Z,36.90
2018-11-07T11:51:23.088Z,38.43
2018-11-07T11:53:54.174Z,37.67
2018-11-07T11:56:25.526Z,35.53
2018-11-07T11:58:56.924Z,33.97
2018-11-07T12:01:27.990Z,35.20
2018-11-07T12:03:59.614Z,34.30
2018-11-07T12:06:31.011Z,36.47
2018-11-07T12:09:02.006Z,31.70
2018-11-07T12:11:33.233Z,29.47
2018-11-07T12:14:04.230Z,30.43
2018-11-07T12:16:35.318Z,29.30
2018-11-07T12:19:06.316Z,30.60
2018-11-07T12:21:37.379Z,28.87
2018-11-07T12:24:08.938Z,30.13
2018-11-07T12:26:40.019Z,28.73
2018-11-07T12:29:10.970Z,27.23
2018-11-07T12:31:42.511Z,29.23
2018-11-07T12:34:13.653Z,28.37
2018-11-07T12:36:45.353Z,30.20
2018-11-07T12:39:17.104Z,29.13
2018-11-07T12:41:48.183Z,30.67
2018-11-07T12:44:19.137Z,28.53
2018-11-07T12:46:50.477Z,32.37
2018-11-07T12:49:21.473Z,30.23
2018-11-07T12:51:52.478Z,31.73
2018-11-07T12:54:23.458Z,30.47
2018-11-07T12:56:54.646Z,27.80
2018-11-07T12:59:25.782Z,30.10
2018-11-07T13:01:56.772Z,31.20
2018-11-07T13:04:27.723Z,30.17
2018-11-07T13:06:58.725Z,27.73
2018-11-07T13:09:30.046Z,27.33
2018-11-07T13:12:01.301Z,30.10
2018-11-07T13:14:32.328Z,25.17
2018-11-07T13:17:03.689Z,28.73
2018-11-07T13:19:34.979Z,27.37
2018-11-07T13:22:06.137Z,27.97
2018-11-07T13:24:37.445Z,26.50
2018-11-07T13:27:08.407Z,29.13
2018-11-07T13:29:39.518Z,28.80
2018-11-07T13:32:10.928Z,25.13
2018-11-07T13:34:41.927Z,24.43
2018-11-07T13:37:13.080Z,27.43
2018-11-07T13:39:44.459Z,24.80
2018-11-07T13:42:15.370Z,25.83
2018-11-07T13:44:46.312Z,27.27
2018-11-07T13:47:17.272Z,26.73
2018-11-07T13:49:48.512Z,29.87
2018-11-07T13:52:19.405Z,26.10
2018-11-07T13:54:50.448Z,30.40
2018-11-07T13:57:21.349Z,29.13
2018-11-07T13:59:52.237Z,28.27
2018-11-07T14:02:23.174Z,27.70
2018-11-07T14:04:54.434Z,28.73
2018-11-07T14:07:25.715Z,28.23
2018-11-07T14:09:56.946Z,26.63
2018-11-07T14:12:27.867Z,28.27
2018-11-07T14:14:58.820Z,29.80
2018-11-07T14:17:30.020Z,31.43
2018-11-07T14:20:01.169Z,31.57
2018-11-07T14:22:32.437Z,28.00
2018-11-07T14:25:03.407Z,30.10
2018-11-07T14:27:34.471Z,28.83
2018-11-07T14:30:07.904Z,27.40
2018-11-07T14:32:40.083Z,27.10
2018-11-07T14:35:11.025Z,29.07
2018-11-07T14:37:42.090Z,26.93
2018-11-07T14:40:13.234Z,31.30
2018-11-07T14:42:44.424Z,30.97
2018-11-07T14:45:15.312Z,27.13
2018-11-07T14:47:46.282Z,26.97
2018-11-07T14:50:17.120Z,29.73
2018-11-07T14:52:48.131Z,29.07
2018-11-07T14:55:19.032Z,27.70
2018-11-07T14:57:49.931Z,27.20
2018-11-07T15:00:20.881Z,29.10
2018-11-07T15:02:51.912Z,28.73
2018-11-07T15:05:22.748Z,31.07
2018-11-07T15:07:53.721Z,31.47
2018-11-07T15:10:25.053Z,30.10
2018-11-07T15:12:55.921Z,33.73
2018-11-07T15:15:26.809Z,31.43
2018-11-07T15:17:57.732Z,33.07
2018-11-07T15:20:28.634Z,31.00
2018-11-07T15:22:59.590Z,32.60
2018-11-07T15:25:30.480Z,36.10
2018-11-07T15:28:01.459Z,35.47
2018-11-07T15:30:32.347Z,38.63
2018-11-07T15:33:03.621Z,41.47
2018-11-07T15:35:34.529Z,35.47
2018-11-07T15:38:05.575Z,40.47
2018-11-07T15:40:36.535Z,39.03
2018-11-07T15:43:07.518Z,40.67
2018-11-07T15:45:38.749Z,44.00
2018-11-07T15:48:09.625Z,42.53
2018-11-07T15:50:57.645Z,38.67
2018-11-07T15:53:28.998Z,41.33
2018-11-07T15:55:59.868Z,35.90
2018-11-07T15:58:30.763Z,35.63
2018-11-07T16:01:01.634Z,29.80
2018-11-07T16:03:51.230Z,30.70
2018-11-07T16:06:22.201Z,31.43
2018-11-07T16:08:53.038Z,37.03
2018-11-07T16:11:24.818Z,35.50
2018-11-07T16:13:56.014Z,34.10
2018-11-07T16:16:28.110Z,35.10
2018-11-07T16:18:59.099Z,45.00
2018-11-07T16:21:30.261Z,41.67
2018-11-07T16:24:01.201Z,36.93
2018-11-07T16:26:32.016Z,30.60
2018-11-07T16:29:02.908Z,24.60
2018-11-07T16:31:33.770Z,24.93
2018-11-07T16:34:04.665Z,23.97
2018-11-07T16:36:35.595Z,25.43
2018-11-07T16:39:09.234Z,27.40
2018-11-07T16:41:40.320Z,31.03
2018-11-07T16:44:11.708Z,26.63
2018-11-07T16:46:42.879Z,25.47
2018-11-07T16:49:14.417Z,25.00
2018-11-07T16:51:45.313Z,21.13
2018-11-07T16:54:22.170Z,22.03
2018-11-07T16:56:53.086Z,22.83
2018-11-07T16:59:24.441Z,24.43
2018-11-07T17:01:55.342Z,27.67
2018-11-07T17:04:26.638Z,30.83
2018-11-07T17:06:57.557Z,30.03
2018-11-07T17:09:28.411Z,37.50
2018-11-07T17:11:59.293Z,47.80
2018-11-07T17:14:30.494Z,50.60
2018-11-07T17:17:01.460Z,55.30
2018-11-07T17:19:32.370Z,65.43
2018-11-07T17:22:03.274Z,67.53
2018-11-07T17:24:34.371Z,52.73
2018-11-07T17:27:05.118Z,47.53
2018-11-07T17:29:36.069Z,38.93
2018-11-07T17:32:07.093Z,34.60
2018-11-07T17:34:37.976Z,39.80
2018-11-07T17:37:08.878Z,32.47
2018-11-07T17:39:39.705Z,32.13
2018-11-07T17:42:10.593Z,32.63
2018-11-07T17:44:41.623Z,38.37
2018-11-07T17:47:12.524Z,30.97
2018-11-07T17:49:43.668Z,33.70
2018-11-07T17:52:14.529Z,34.60
2018-11-07T17:54:45.406Z,33.40
2018-11-07T17:57:16.276Z,31.87
2018-11-07T17:59:47.383Z,30.17
2018-11-07T18:02:18.268Z,38.27
2018-11-07T18:04:50.433Z,37.83
2018-11-07T18:07:21.332Z,31.83
2018-11-07T18:09:52.982Z,30.77
2018-11-07T18:12:23.782Z,33.70
2018-11-07T18:14:54.704Z,35.43
2018-11-07T18:17:25.949Z,35.90
2018-11-07T18:19:57.198Z,35.07
2018-11-07T18:22:28.440Z,33.87
2018-11-07T18:24:59.813Z,35.80
2018-11-07T18:27:30.744Z,39.73
2018-11-07T18:30:01.985Z,30.83
2018-11-07T18:32:32.943Z,42.30
2018-11-07T18:35:03.894Z,32.43
2018-11-07T18:37:34.773Z,41.70
2018-11-07T18:40:07.194Z,31.57
2018-11-07T18:42:38.456Z,29.93
2018-11-07T18:45:11.080Z,31.27
2018-11-07T18:47:43.362Z,36.83
2018-11-07T18:50:15.702Z,36.23
2018-11-07T18:52:47.052Z,43.40
2018-11-07T18:55:18.501Z,38.20
2018-11-07T18:57:49.422Z,33.23
2018-11-07T19:00:21.143Z,34.87
2018-11-07T19:02:52.097Z,36.83
2018-11-07T19:05:23.364Z,38.47
2018-11-07T19:07:54.322Z,40.33
2018-11-07T19:10:25.247Z,43.07
2018-11-07T19:12:56.139Z,39.43
2018-11-07T19:15:27.049Z,44.23
2018-11-07T19:17:57.993Z,35.90
2018-11-07T19:20:29.205Z,40.70
2018-11-07T19:23:00.441Z,46.30
2018-11-07T19:25:31.376Z,45.67
2018-11-07T19:28:03.037Z,39.17
2018-11-07T19:30:35.210Z,33.33
2018-11-07T19:33:06.238Z,29.87
2018-11-07T19:35:37.107Z,34.33
2018-11-07T19:38:08.367Z,36.00
2018-11-07T19:40:39.687Z,41.57
2018-11-07T19:43:11.015Z,36.30
2018-11-07T19:45:41.941Z,37.83
2018-11-07T19:48:13.236Z,34.70
2018-11-07T19:50:44.651Z,32.87
2018-11-07T19:53:15.712Z,33.63
2018-11-07T19:55:47.037Z,36.70
2018-11-07T19:58:18.400Z,41.33
2018-11-07T20:00:49.849Z,38.63
2018-11-07T20:03:20.773Z,35.60
2018-11-07T20:05:52.120Z,45.63
2018-11-07T20:08:23.075Z,40.23
2018-11-07T20:10:54.255Z,39.70
2018-11-07T20:13:25.204Z,34.20
2018-11-07T20:15:56.270Z,38.73
2018-11-07T20:18:27.236Z,39.23
2018-11-07T20:20:58.153Z,40.90
2018-11-07T20:23:29.941Z,38.60
2018-11-07T20:26:00.896Z,40.27
2018-11-07T20:28:31.984Z,38.17
2018-11-07T20:31:03.219Z,42.70
2018-11-07T20:33:35.341Z,34.87
2018-11-07T20:36:06.851Z,35.70
2018-11-07T20:38:37.860Z,37.13
2018-11-07T20:41:09.031Z,39.60
2018-11-07T20:43:40.322Z,42.17
2018-11-07T20:46:11.300Z,48.97
2018-11-07T20:48:42.289Z,46.43
2018-11-07T20:51:13.185Z,41.17
2018-11-07T20:53:44.131Z,48.03
2018-11-07T20:56:15.618Z,39.37
2018-11-07T20:58:46.583Z,39.67
2018-11-07T21:01:17.601Z,35.20
2018-11-07T21:03:48.649Z,39.20
2018-11-07T21:06:19.826Z,36.27
2018-11-07T21:08:51.432Z,38.10
2018-11-07T21:11:22.476Z,38.40
2018-11-07T21:13:53.693Z,45.07
2018-11-07T21:16:24.877Z,39.80
2018-11-07T21:18:55.856Z,42.57
2018-11-07T21:21:26.979Z,48.63
2018-11-07T21:23:57.882Z,43.67
2018-11-07T21:26:28.840Z,39.80
2018-11-07T21:29:00.056Z,38.80
2018-11-07T21:31:31.852Z,42.67
2018-11-07T21:34:03.461Z,41.43
2018-11-07T21:36:34.372Z,37.40
2018-11-07T21:39:07.779Z,36.20
2018-11-07T21:41:38.967Z,39.17
2018-11-07T21:44:09.966Z,40.20
2018-11-07T21:46:40.934Z,37.50
2018-11-07T21:49:11.882Z,35.03
2018-11-07T21:51:43.531Z,34.67
2018-11-07T21:54:14.858Z,34.27
2018-11-07T21:56:46.050Z,32.77
2018-11-07T21:59:17.003Z,36.33
2018-11-07T22:01:48.092Z,43.17
2018-11-07T22:04:18.984Z,43.40
2018-11-07T22:06:50.060Z,37.30
2018-11-07T22:09:22.129Z,40.73
2018-11-07T22:11:53.007Z,39.40
2018-11-07T22:14:24.018Z,39.83
2018-11-07T22:16:55.057Z,40.10
2018-11-07T22:19:26.324Z,39.97
2018-11-07T22:21:57.351Z,42.70
2018-11-07T22:24:28.296Z,32.90
2018-11-07T22:26:59.321Z,31.17
2018-11-07T22:29:30.305Z,27.13
2018-11-07T22:32:01.691Z,25.73
2018-11-07T22:34:33.023Z,29.43
2018-11-07T22:37:04.372Z,32.03
2018-11-07T22:39:35.389Z,38.77
2018-11-07T22:42:07.557Z,31.17
2018-11-07T22:44:38.835Z,27.97
2018-11-07T22:47:09.835Z,28.83
2018-11-07T22:49:41.667Z,33.80
2018-11-07T22:52:12.634Z,42.60
2018-11-07T22:54:43.927Z,42.77
2018-11-07T22:57:14.904Z,40.37
2018-11-07T22:59:45.910Z,35.43
2018-11-07T23:02:16.860Z,34.13
2018-11-07T23:04:48.043Z,31.23
2018-11-07T23:07:19.014Z,36.67
2018-11-07T23:09:50.005Z,34.57
2018-11-07T23:12:21.488Z,38.10
2018-11-07T23:14:52.857Z,39.60
2018-11-07T23:17:23.804Z,39.03
2018-11-07T23:19:55.033Z,38.70
2018-11-07T23:22:25.975Z,37.10
2018-11-07T23:24:57.010Z,45.43
2018-11-07T23:27:27.946Z,44.57
2018-11-07T23:29:58.908Z,49.37
2018-11-07T23:32:29.874Z,52.60
2018-11-07T23:35:01.304Z,46.00
2018-11-07T23:37:32.310Z,45.87
2018-11-07T23:40:03.567Z,47.10
2018-11-07T23:42:34.797Z,43.60
2018-11-07T23:45:06.445Z,46.00
2018-11-07T23:47:37.822Z,40.37
2018-11-07T23:50:09.933Z,36.07
2018-11-07T23:52:51.056Z,168.17
2018-11-07T23:55:23.326Z,94.10
2018-11-07T23:57:54.976Z,62.90
